Time;durP1;ratioP1;P1;durP2;ratioP2;P2;SDS_P1;SDS_P2;PMS_P1;PMS_P2;Temp;Humidity;BMP_temperature;BMP_pressure;BME280_temperature;BME280_humidity;BME280_pressure;Samples;Min_cycle;Max_cycle;Signal;HPM_P1;HPM_P2
2022/06/01 00:01:20;;;;;;;13.77;6.10;;;20.20;99.90;;;;;;4897705;29;20080;-80
2022/06/01 00:03:49;;;;;;;11.50;5.93;;;20.30;99.90;;;;;;4899331;29;20550;-80
2022/06/01 00:06:17;;;;;;;16.58;5.72;;;20.30;99.90;;;;;;4898760;29;20049;-80
2022/06/01 00:08:44;;;;;;;11.77;5.97;;;20.20;99.90;;;;;;4899753;29;20099;-80
2022/06/01 00:11:11;;;;;;;14.80;5.97;;;20.00;99.90;;;;;;4899447;29;20048;-81
2022/06/01 00:13:40;;;;;;;17.38;7.45;;;19.90;99.90;;;;;;4881563;29;20497;-80
2022/06/01 00:16:08;;;;;;;17.48;8.00;;;19.90;99.90;;;;;;4879426;29;20049;-78
2022/06/01 00:18:40;;;;;;;14.38;6.93;;;20.10;99.90;;;;;;4879317;29;20493;-80
2022/06/01 00:21:08;;;;;;;15.10;6.72;;;20.30;99.90;;;;;;4879678;29;20049;-79
2022/06/01 00:23:36;;;;;;;15.88;6.40;;;20.20;99.90;;;;;;4880358;29;20108;-80
2022/06/01 00:26:03;;;;;;;15.18;6.95;;;20.20;99.90;;;;;;4879428;29;20057;-79
2022/06/01 00:28:31;;;;;;;14.23;6.28;;;20.10;99.90;;;;;;4863719;29;20041;-78
2022/06/01 00:31:03;;;;;;;;;;;19.80;99.90;;;;;;4880714;29;20048;-78
2022/06/01 00:33:31;;;;;;;12.70;6.93;;;19.70;99.90;;;;;;4894462;29;20295;-80
2022/06/01 00:35:59;;;;;;;15.85;5.40;;;19.60;99.90;;;;;;4894139;29;20061;-81
2022/06/01 00:38:31;;;;;;;13.50;6.68;;;19.60;99.90;;;;;;4879003;29;20056;-81
2022/06/01 00:40:59;;;;;;;13.38;6.28;;;19.60;99.90;;;;;;4879090;29;20045;-81
2022/06/01 00:43:41;;;;;;;13.43;6.47;;;19.50;99.90;;;;;;4863724;29;20570;-80
2022/06/01 00:46:09;;;;;;;16.52;6.32;;;19.40;99.90;;;;;;4878484;29;20049;-81
2022/06/01 00:48:40;;;;;;;14.35;6.43;;;19.30;99.90;;;;;;4879874;29;20105;-79
2022/06/01 00:51:09;;;;;;;12.50;6.03;;;19.40;99.90;;;;;;4879845;29;20557;-79
2022/06/01 00:53:39;;;;;;;12.75;6.20;;;19.50;99.90;;;;;;4879756;29;20394;-78
2022/06/01 00:56:18;;;;;;;9.73;5.00;;;19.60;99.90;;;;;;4893981;29;20460;-81
2022/06/01 00:58:51;;;;;;;13.75;6.20;;;19.30;99.90;;;;;;4878577;29;20140;-79
2022/06/01 01:02:41;;;;;;;18.08;6.63;;;19.40;99.90;;;;;;4792812;29;20062;-80
2022/06/01 01:08:57;;;;;;;10.32;6.00;;;19.80;99.90;;;;;;4824931;29;20042;-78
2022/06/01 01:11:37;;;;;;;13.15;5.93;;;20.00;99.90;;;;;;4840155;29;20054;-79
2022/06/01 01:14:08;;;;;;;11.80;6.03;;;19.90;99.90;;;;;;4842306;29;20078;-80
2022/06/01 01:16:42;;;;;;;14.68;6.20;;;19.90;99.90;;;;;;4842939;29;20643;-80
2022/06/01 01:19:33;;;;;;;12.40;5.60;;;19.80;99.90;;;;;;4858497;29;20422;-79
2022/06/01 01:22:36;;;;;;;11.43;5.50;;;19.60;99.90;;;;;;4858488;29;20042;-79
2022/06/01 01:25:20;;;;;;;10.93;5.70;;;19.70;99.90;;;;;;4843021;29;20477;-77
2022/06/01 01:27:54;;;;;;;10.45;5.75;;;19.70;99.90;;;;;;4842697;29;20038;-78
2022/06/01 01:30:36;;;;;;;12.30;6.57;;;19.60;99.90;;;;;;4858465;29;20439;-78
2022/06/01 01:33:08;;;;;;;15.02;5.68;;;19.60;99.90;;;;;;4858003;29;20222;-78
2022/06/01 01:35:36;;;;;;;13.43;6.43;;;19.50;99.90;;;;;;4842774;29;20053;-78
2022/06/01 01:38:09;;;;;;;13.88;5.50;;;19.50;99.90;;;;;;4846306;29;20089;-78
2022/06/01 01:40:37;;;;;;;12.63;5.72;;;19.40;99.90;;;;;;4877987;29;20391;-79
2022/06/01 01:43:57;;;;;;;13.15;5.13;;;19.40;99.90;;;;;;4871576;29;20112;-79
2022/06/01 01:46:28;;;;;;;10.90;4.80;;;19.40;99.90;;;;;;4877956;29;20149;-78
2022/06/01 01:48:56;;;;;;;12.07;5.32;;;19.30;99.90;;;;;;4877499;29;20458;-79
2022/06/01 01:51:28;;;;;;;14.73;5.10;;;19.20;99.90;;;;;;4877831;29;20045;-81
2022/06/01 01:54:33;;;;;;;12.00;5.10;;;19.20;99.90;;;;;;4878580;29;20068;-79
2022/06/01 01:57:16;;;;;;;9.43;5.10;;;19.20;99.90;;;;;;4878177;29;20409;-80
2022/06/01 02:00:15;;;;;;;11.30;5.82;;;19.30;99.90;;;;;;4877613;29;20056;-80
2022/06/01 02:02:58;;;;;;;8.93;5.22;;;19.20;99.90;;;;;;4877055;29;20053;-82
2022/06/01 02:08:34;;;;;;;12.73;5.22;;;18.90;99.90;;;;;;4877606;29;20405;-83
2022/06/01 02:14:21;;;;;;;11.30;5.00;;;18.90;99.90;;;;;;4878192;29;20132;-79
2022/06/01 02:17:04;;;;;;;8.07;5.00;;;18.90;99.90;;;;;;4878487;29;20045;-79
2022/06/01 02:19:42;;;;;;;9.30;5.25;;;18.80;99.90;;;;;;4878163;29;20049;-80
2022/06/01 02:22:13;;;;;;;9.43;5.25;;;18.80;99.90;;;;;;4877090;29;20076;-80
2022/06/01 02:24:42;;;;;;;11.00;4.97;;;18.80;99.90;;;;;;4877199;29;20049;-81
2022/06/01 02:27:11;;;;;;;8.23;4.85;;;18.80;99.90;;;;;;4878199;29;20057;-80
2022/06/01 02:29:51;;;;;;;9.48;5.30;;;18.70;99.90;;;;;;4877315;29;20073;-79
2022/06/01 02:32:20;;;;;;;11.93;5.18;;;18.60;99.90;;;;;;4876421;29;20487;-79
2022/06/01 02:34:49;;;;;;;10.80;4.97;;;18.60;99.90;;;;;;4877196;29;20442;-80
2022/06/01 02:37:18;;;;;;;9.18;4.45;;;18.80;99.90;;;;;;4892014;29;20095;-80
2022/06/01 02:39:52;;;;;;;11.20;5.28;;;19.00;99.90;;;;;;4877966;29;20041;-81
2022/06/01 02:42:25;;;;;;;11.52;4.57;;;18.90;99.90;;;;;;4892034;29;20131;-79
2022/06/01 02:44:58;;;;;;;10.75;4.93;;;18.70;99.90;;;;;;4878191;29;20101;-80
2022/06/01 02:47:32;;;;;;;9.20;5.10;;;18.60;99.90;;;;;;4876897;29;20411;-81
2022/06/01 02:50:01;;;;;;;10.98;5.07;;;18.60;99.90;;;;;;4877907;29;20033;-79
2022/06/01 02:52:29;;;;;;;12.25;5.03;;;18.50;99.90;;;;;;4876491;29;20159;-81
2022/06/01 02:54:57;;;;;;;11.98;5.05;;;18.30;99.90;;;;;;4876884;29;20132;-80
2022/06/01 02:57:25;;;;;;;12.90;4.43;;;18.30;99.90;;;;;;4877828;29;20560;-85
2022/06/01 02:59:52;;;;;;;8.60;4.57;;;18.10;99.90;;;;;;4877918;29;20045;-79
2022/06/01 03:02:19;;;;;;;9.85;4.80;;;18.10;99.90;;;;;;4877411;29;20102;-82
2022/06/01 03:04:47;;;;;;;7.63;4.50;;;18.00;99.90;;;;;;4877627;29;20415;-82
2022/06/01 03:07:14;;;;;;;10.23;4.75;;;17.90;99.90;;;;;;4892117;29;20553;-84
2022/06/01 03:09:43;;;;;;;9.00;4.47;;;17.90;99.90;;;;;;4879350;29;20068;-81
2022/06/01 03:12:10;;;;;;;8.20;3.95;;;17.90;99.90;;;;;;4881449;29;20045;-80
2022/06/01 03:14:38;;;;;;;8.32;4.63;;;17.90;99.90;;;;;;4883215;29;20446;-82
2022/06/01 03:17:06;;;;;;;9.93;4.80;;;18.00;99.90;;;;;;4900327;29;20504;-81
2022/06/01 03:19:34;;;;;;;7.47;4.15;;;17.90;99.90;;;;;;4899930;29;20407;-80
2022/06/01 03:22:01;;;;;;;9.13;4.18;;;18.00;99.90;;;;;;4914912;29;20056;-79
2022/06/01 03:24:29;;;;;;;9.25;4.80;;;18.10;99.90;;;;;;4899721;29;20048;-80
2022/06/01 03:26:57;;;;;;;8.40;4.10;;;18.30;99.90;;;;;;4883833;29;20052;-80
2022/06/01 03:29:24;;;;;;;10.00;4.93;;;18.20;99.90;;;;;;4898679;29;20076;-81
2022/06/01 03:31:53;;;;;;;10.23;4.38;;;18.10;99.90;;;;;;4883267;29;20056;-81
2022/06/01 03:34:21;;;;;;;11.98;4.82;;;18.00;99.90;;;;;;4899683;29;20055;-81
2022/06/01 03:36:48;;;;;;;10.30;4.38;;;18.10;99.90;;;;;;4899772;29;20088;-80
2022/06/01 03:39:16;;;;;;;10.77;4.68;;;18.10;99.90;;;;;;4914367;29;20084;-80
2022/06/01 03:41:43;;;;;;;7.85;4.65;;;18.10;99.90;;;;;;4898657;29;20561;-81
2022/06/01 03:47:01;;;;;;;7.85;4.32;;;18.30;99.90;;;;;;4898362;29;20116;-81
2022/06/01 03:49:29;;;;;;;7.57;4.25;;;18.40;99.90;;;;;;4914235;29;20056;-80
2022/06/01 03:51:56;;;;;;;11.75;4.50;;;18.50;99.90;;;;;;4882669;29;20497;-83
2022/06/01 03:54:23;;;;;;;16.85;5.28;;;18.50;99.90;;;;;;4899492;29;20040;-80
2022/06/01 03:56:51;;;;;;;10.48;4.78;;;18.40;99.90;;;;;;4898575;29;20151;-80
2022/06/01 03:59:18;;;;;;;10.98;4.75;;;18.50;99.90;;;;;;4898990;29;20071;-80
2022/06/01 04:01:46;;;;;;;10.50;5.03;;;18.40;99.90;;;;;;4913731;29;20116;-80
2022/06/01 04:04:39;;;;;;;8.50;4.93;;;18.40;99.90;;;;;;4897859;29;20044;-81
2022/06/01 04:07:10;;;;;;;11.77;5.30;;;18.40;99.90;;;;;;4897667;29;20052;-80
2022/06/01 04:09:37;;;;;;;7.57;4.43;;;18.40;99.90;;;;;;4913663;29;20051;-82
2022/06/01 04:12:06;;;;;;;10.60;4.97;;;18.50;99.90;;;;;;4899271;29;20108;-79
2022/06/01 04:14:34;;;;;;;11.70;6.28;;;18.50;99.90;;;;;;4898196;29;20442;-82
2022/06/01 04:17:01;;;;;;;8.68;4.80;;;18.50;99.90;;;;;;4878965;29;20565;-80
2022/06/01 04:19:29;;;;;;;11.88;4.85;;;18.50;99.90;;;;;;4878466;29;20055;-82
2022/06/01 04:22:23;;;;;;;11.15;4.80;;;18.60;99.90;;;;;;4879614;29;20077;-81
2022/06/01 04:24:50;;;;;;;13.02;5.03;;;18.60;99.90;;;;;;4878093;29;20077;-82
2022/06/01 04:27:17;;;;;;;12.32;5.13;;;18.50;99.90;;;;;;4880293;29;20053;-83
2022/06/01 04:29:45;;;;;;;13.27;5.28;;;18.60;99.90;;;;;;4894522;29;20041;-83
2022/06/01 04:32:21;;;;;;;11.15;5.03;;;18.60;99.90;;;;;;4879104;29;20052;-80
2022/06/01 04:35:13;;;;;;;11.18;4.88;;;18.70;99.90;;;;;;4878551;29;20446;-82
2022/06/01 04:37:40;;;;;;;11.80;5.13;;;18.80;99.90;;;;;;4879166;29;20054;-80
2022/06/01 04:40:11;;;;;;;11.70;5.05;;;18.80;99.90;;;;;;4879038;29;20057;-81
2022/06/01 04:43:21;;;;;;;15.52;8.82;;;18.90;99.90;;;;;;4890135;29;20132;-81
2022/06/01 04:45:55;;;;;;;28.08;15.98;;;19.00;99.90;;;;;;4879455;29;20049;-80
2022/06/01 05:13:19;;;;;;;13.02;4.90;;;19.90;99.90;;;;;;5727304;23;20040;-95
2022/06/01 05:16:32;;;;;;;9.90;4.93;;;19.80;99.90;;;;;;4937563;29;20058;-92
2022/06/01 05:19:59;;;;;;;10.02;5.38;;;19.70;99.90;;;;;;4936256;29;20075;-91
2022/06/01 05:22:45;;;;;;;9.40;4.60;;;19.80;99.90;;;;;;4883692;29;20060;-93
2022/06/01 05:32:39;;;;;;;9.35;4.75;;;20.20;99.90;;;;;;5760833;23;20440;-91
2022/06/01 05:35:08;;;;;;;7.30;4.50;;;20.00;99.90;;;;;;4919860;29;20055;-90
2022/06/01 05:42:06;;;;;;;12.38;4.45;;;20.10;99.90;;;;;;4934688;29;20112;-87
2022/06/01 05:44:37;;;;;;;14.02;5.32;;;20.00;99.90;;;;;;4917875;29;20110;-88
2022/06/01 05:57:58;;;;;;;11.25;5.07;;;20.10;99.90;;;;;;4860995;29;20060;-89
2022/06/01 06:00:31;;;;;;;16.85;5.50;;;20.10;99.90;;;;;;5363653;23;20018;-87
2022/06/01 06:07:22;;;;;;;9.93;5.47;;;20.20;99.90;;;;;;4918264;29;20083;-89
2022/06/01 06:09:49;;;;;;;12.43;4.82;;;20.50;99.90;;;;;;4885220;29;20404;-85
2022/06/01 06:15:21;;;;;;;57.55;39.03;;;20.60;99.90;;;;;;4921468;23;20139;-88
2022/06/01 06:25:34;;;;;;;12.90;6.82;;;20.70;99.90;;;;;;5603640;23;20072;-90
2022/06/01 06:29:07;;;;;;;11.13;5.45;;;20.70;99.90;;;;;;5346830;23;20052;-88
2022/06/01 06:33:17;;;;;;;9.77;5.32;;;20.90;99.90;;;;;;4923970;29;20059;-89
2022/06/01 06:40:28;;;;;;;12.90;5.13;;;21.00;99.90;;;;;;4950093;23;20049;31
2022/06/01 06:48:08;;;;;;;11.38;5.20;;;21.20;99.90;;;;;;4905806;23;20135;-88
2022/06/01 07:04:44;;;;;;;12.40;5.50;;;21.60;99.90;;;;;;6064002;23;20025;-92
2022/06/01 07:07:19;;;;;;;10.18;4.63;;;21.60;99.90;;;;;;4915394;29;20087;-90
2022/06/01 07:09:56;;;;;;;11.05;5.40;;;21.60;99.90;;;;;;4902362;29;20083;-83
2022/06/01 07:12:33;;;;;;;10.23;5.15;;;21.60;99.90;;;;;;4919376;29;20054;-92
2022/06/01 07:15:30;;;;;;;13.15;5.30;;;21.70;99.90;;;;;;4918299;29;20040;-85
2022/06/01 07:18:13;;;;;;;10.68;5.38;;;21.90;99.90;;;;;;4901929;29;20052;-96
2022/06/01 07:20:40;;;;;;;12.25;5.70;;;21.90;99.90;;;;;;4915625;29;20059;-84
2022/06/01 07:23:13;;;;;;;12.27;6.15;;;21.80;99.90;;;;;;4916468;29;20040;-89
2022/06/01 07:25:42;;;;;;;12.68;5.90;;;21.80;99.90;;;;;;4915131;29;20080;-81
2022/06/01 07:28:10;;;;;;;11.57;5.70;;;21.90;99.90;;;;;;4915067;29;20049;-83
2022/06/01 07:30:38;;;;;;;10.93;5.72;;;21.90;99.90;;;;;;4929778;29;20052;-80
2022/06/01 07:33:08;;;;;;;8.93;5.10;;;21.90;99.90;;;;;;4913650;29;20263;-81
2022/06/01 07:36:51;;;;;;;;;;;;;;;;;;;;;
2022/06/01 07:43:14;;;;;;;12.65;5.47;;;22.00;99.90;;;;;;4819953;29;20107;-77
2022/06/01 07:45:45;;;;;;;12.98;6.00;;;22.10;99.90;;;;;;4878327;29;20053;-77
2022/06/01 07:48:12;;;;;;;12.35;5.63;;;22.20;99.90;;;;;;4896029;29;20449;-77
2022/06/01 07:51:00;;;;;;;11.60;6.05;;;22.20;99.90;;;;;;4895555;29;20041;-78
2022/06/01 07:53:28;;;;;;;8.57;5.22;;;22.30;99.90;;;;;;4896071;29;20382;-79
2022/06/01 07:55:55;;;;;;;11.43;6.30;;;22.30;99.90;;;;;;4898161;29;20040;-79
2022/06/01 07:58:47;;;;;;;13.38;5.88;;;22.30;99.90;;;;;;4899380;29;20071;-82
2022/06/01 08:01:15;;;;;;;10.80;5.32;;;22.20;99.90;;;;;;4879626;29;20136;-82
2022/06/01 08:04:08;;;;;;;14.45;5.65;;;22.30;99.90;;;;;;4891958;29;20084;-83
2022/06/01 08:06:38;;;;;;;14.38;5.45;;;22.30;99.90;;;;;;4879485;29;20081;-80
2022/06/01 08:09:23;;;;;;;12.65;5.13;;;22.40;99.90;;;;;;4879595;29;20064;-84
2022/06/01 08:14:46;;;;;;;13.40;4.88;;;22.60;99.90;;;;;;4886618;29;20119;-84
2022/06/01 08:17:25;;;;;;;11.55;5.43;;;22.80;99.90;;;;;;4897864;29;20719;-82
2022/06/01 08:19:55;;;;;;;9.63;4.93;;;22.90;99.90;;;;;;4898378;29;20056;-88
2022/06/01 08:23:18;;;;;;;;;;;;;;;;;;;;;
2022/06/01 08:29:58;;;;;;;12.18;5.05;;;23.10;99.90;;;;;;5107479;23;20048;-87
2022/06/01 08:36:47;;;;;;;8.05;4.68;;;23.30;99.90;;;;;;4945348;23;20146;-86
2022/06/01 08:39:17;;;;;;;6.93;4.65;;;23.20;99.90;;;;;;4920007;29;20044;-90
2022/06/01 08:41:47;;;;;;;;;;;23.50;99.90;;;;;;4920839;29;20106;-82
2022/06/01 08:44:37;;;;;;;10.88;4.53;;;23.70;99.90;;;;;;4920532;29;20366;-83
2022/06/01 08:47:58;;;;;;;11.43;4.10;;;23.40;99.90;;;;;;4920305;29;20044;-83
2022/06/01 08:50:57;;;;;;;12.40;5.15;;;23.30;99.90;;;;;;4904410;29;20500;-86
2022/06/01 08:53:30;;;;;;;11.80;4.68;;;23.30;99.90;;;;;;4920219;29;20050;-80
2022/06/01 09:00:24;;;;;;;11.20;7.15;;;23.50;99.90;;;;;;4887585;29;20095;-84
2022/06/01 09:07:23;;;;;;;10.23;4.55;;;23.80;99.90;;;;;;4935392;29;20115;-82
2022/06/01 09:10:36;;;;;;;13.63;4.78;;;23.80;99.90;;;;;;4919091;29;20571;-80
2022/06/01 09:13:07;;;;;;;;;;;24.00;99.90;;;;;;4919380;29;20055;-80
2022/06/01 09:16:15;;;;;;;12.48;5.22;;;24.30;99.90;;;;;;4919398;29;20279;-80
2022/06/01 09:18:51;;;;;;;8.82;4.03;;;24.30;99.90;;;;;;4919453;29;20070;-80
2022/06/01 09:24:59;;;;;;;16.90;5.60;;;24.60;99.90;;;;;;4880447;29;20056;-86
2022/06/01 09:27:42;;;;;;;9.70;4.75;;;24.80;99.90;;;;;;4864733;29;20183;-81
2022/06/01 09:30:33;;;;;;;9.90;5.38;;;24.90;99.90;;;;;;4864990;29;20057;-85
2022/06/01 09:34:26;;;;;;;7.90;4.75;;;24.90;99.90;;;;;;4839996;29;20056;-83
2022/06/01 09:37:54;;;;;;;9.65;4.80;;;24.70;99.90;;;;;;4793586;29;20058;-87
2022/06/01 09:40:32;;;;;;;12.48;5.32;;;25.00;99.90;;;;;;4791734;29;20124;-81
2022/06/01 09:43:03;;;;;;;10.82;4.50;;;25.00;99.90;;;;;;4806627;29;20532;-83
2022/06/01 10:08:12;;;;;;;13.85;5.75;;;26.10;99.90;;;;;;4942551;23;20062;-85
2022/06/01 10:14:57;;;;;;;11.30;4.68;;;25.80;99.90;;;;;;4907668;23;20040;-81
2022/06/01 10:17:35;;;;;;;8.70;4.60;;;25.70;99.90;;;;;;4934549;29;20118;-80
2022/06/01 10:24:10;;;;;;;16.38;5.43;;;26.20;99.30;;;;;;4934577;29;20099;-84
2022/06/01 10:27:18;;;;;;;10.50;4.22;;;26.10;98.90;;;;;;4918585;29;20043;-82
2022/06/01 10:30:16;;;;;;;8.20;4.00;;;26.20;99.10;;;;;;4917795;29;20530;-82
2022/06/01 10:33:18;;;;;;;7.80;3.97;;;26.60;98.50;;;;;;4903486;29;20412;-81
2022/06/01 10:35:49;;;;;;;12.25;3.55;;;27.10;97.20;;;;;;4917672;29;20052;-82
2022/06/01 10:42:21;;;;;;;10.00;4.10;;;27.10;95.30;;;;;;4934420;29;20051;-82
2022/06/01 10:45:12;;;;;;;10.48;3.88;;;26.90;94.10;;;;;;4917699;29;20569;-82
2022/06/01 10:48:20;;;;;;;7.57;3.83;;;27.10;94.70;;;;;;4933393;29;20083;-83
2022/06/01 10:51:04;;;;;;;8.77;4.03;;;26.80;92.90;;;;;;4934670;29;20047;-83
2022/06/01 10:53:59;;;;;;;11.55;3.70;;;26.80;92.90;;;;;;4902448;29;20074;-82
2022/06/01 10:56:39;;;;;;;9.63;3.92;;;27.00;92.70;;;;;;4901684;29;20090;-79
2022/06/01 11:07:06;;;;;;;7.30;3.60;;;27.80;92.40;;;;;;4934059;29;20372;-82
2022/06/01 11:14:20;;;;;;;9.75;3.90;;;28.00;88.70;;;;;;4933760;29;20514;-83
2022/06/01 11:17:01;;;;;;;10.05;3.63;;;27.90;88.80;;;;;;4916099;29;20044;-78
2022/06/01 11:20:10;;;;;;;6.63;3.30;;;28.10;87.00;;;;;;4882872;29;20477;-83
2022/06/01 11:23:17;;;;;;;6.32;3.33;;;28.50;86.70;;;;;;4897015;29;20079;-81
2022/06/01 11:26:06;;;;;;;;;;;28.20;84.10;;;;;;4899973;29;20150;-81
2022/06/01 11:29:01;;;;;;;8.00;3.50;;;28.10;84.50;;;;;;4897881;29;19952;-78
2022/06/01 11:31:29;;;;;;;7.10;3.22;;;28.50;85.20;;;;;;4918324;29;20048;-81
2022/06/01 11:34:10;;;;;;;8.70;4.35;;;28.70;80.70;;;;;;4917700;29;20055;-77
2022/06/01 11:37:04;;;;;;;11.73;3.50;;;28.30;87.70;;;;;;4918951;29;20503;-81
2022/06/01 11:39:43;;;;;;;12.85;3.60;;;28.50;84.30;;;;;;4919016;29;20279;-80
2022/06/01 11:42:21;;;;;;;12.95;3.80;;;28.70;83.00;;;;;;4882438;29;20366;-84
2022/06/01 11:45:14;;;;;;;11.30;3.88;;;28.50;80.10;;;;;;4883137;29;20040;-86
2022/06/01 11:48:00;;;;;;;11.10;3.05;;;28.80;81.40;;;;;;4880172;29;20468;-87
2022/06/01 11:50:48;;;;;;;9.13;3.10;;;28.80;78.90;;;;;;4905652;29;20039;-81
2022/06/01 11:53:41;;;;;;;11.70;3.92;;;29.00;80.80;;;;;;4904195;29;20075;-86
2022/06/01 11:56:23;;;;;;;7.50;3.05;;;29.10;80.50;;;;;;4897809;29;20119;-87
2022/06/01 11:59:22;;;;;;;13.93;3.58;;;29.30;76.90;;;;;;4899971;29;20032;-82
2022/06/01 12:02:02;;;;;;;9.13;2.83;;;29.40;70.50;;;;;;4895116;29;20029;-85
2022/06/01 12:05:02;;;;;;;7.00;3.70;;;29.40;73.00;;;;;;4879510;29;20460;-85
2022/06/01 12:07:38;;;;;;;10.90;3.85;;;29.40;75.80;;;;;;4881261;29;20060;-86
2022/06/01 12:10:18;;;;;;;8.02;3.75;;;29.10;73.20;;;;;;4897972;29;20060;-81
2022/06/01 12:12:54;;;;;;;7.60;3.60;;;28.90;75.10;;;;;;4880150;29;20524;-84
2022/06/01 12:15:35;;;;;;;5.80;3.10;;;28.80;74.50;;;;;;4896543;29;20045;-81
2022/06/01 12:18:20;;;;;;;9.82;3.38;;;29.10;75.40;;;;;;4881373;29;20476;-85
2022/06/01 12:20:51;;;;;;;7.60;3.08;;;29.30;75.90;;;;;;4872475;29;20056;-86
2022/06/01 12:29:09;;;;;;;9.73;3.20;;;29.50;73.30;;;;;;4897284;29;20041;-82
2022/06/01 12:31:55;;;;;;;8.05;2.75;;;29.80;73.00;;;;;;4884498;29;20392;-83
2022/06/01 12:34:40;;;;;;;6.65;3.33;;;29.50;75.80;;;;;;4897579;29;20040;-85
2022/06/01 12:37:17;;;;;;;10.43;4.30;;;29.80;73.50;;;;;;4898691;29;20067;-83
2022/06/01 12:39:56;;;;;;;10.18;4.40;;;30.10;71.70;;;;;;4893435;29;20117;-82
2022/06/01 12:42:34;;;;;;;7.35;3.10;;;29.40;74.10;;;;;;4896673;29;20116;-81
2022/06/01 12:45:06;;;;;;;12.02;3.72;;;29.60;74.80;;;;;;4896978;29;20028;-84
2022/06/01 12:47:37;;;;;;;12.52;4.32;;;29.90;72.70;;;;;;4898436;29;20079;-81
2022/06/01 12:50:14;;;;;;;10.73;3.58;;;30.10;72.80;;;;;;4878288;29;20040;-81
2022/06/01 12:52:43;;;;;;;8.38;3.20;;;30.00;73.80;;;;;;4877698;29;20037;-83
2022/06/01 12:55:22;;;;;;;10.07;3.90;;;30.50;72.60;;;;;;4888176;29;20119;-80
2022/06/01 12:57:50;;;;;;;9.57;3.05;;;30.50;72.80;;;;;;4897678;29;20043;-83
2022/06/01 13:00:28;;;;;;;12.07;3.92;;;30.30;73.80;;;;;;4898678;29;20096;-79
2022/06/01 13:02:56;;;;;;;8.43;3.80;;;30.30;72.70;;;;;;4893021;29;20044;-77
2022/06/01 13:05:34;;;;;;;7.57;3.05;;;29.70;73.70;;;;;;4898157;29;20040;-85
2022/06/01 13:08:03;;;;;;;9.02;3.20;;;29.90;72.40;;;;;;4881158;29;20083;-81
2022/06/01 13:10:33;;;;;;;14.27;3.80;;;29.90;73.50;;;;;;4898310;29;20033;-81
2022/06/01 13:13:09;;;;;;;9.18;2.80;;;30.40;71.10;;;;;;4898237;29;20040;-82
2022/06/01 13:15:37;;;;;;;9.60;3.63;;;30.40;72.40;;;;;;4898136;29;20085;-86
2022/06/01 13:18:11;;;;;;;8.43;3.15;;;30.60;73.50;;;;;;4897721;29;20163;-86
2022/06/01 13:20:48;;;;;;;10.13;3.45;;;30.90;70.70;;;;;;4898139;29;20438;-78
2022/06/01 13:23:26;;;;;;;8.80;2.70;;;31.00;71.40;;;;;;4897858;29;20053;-78
2022/06/01 13:25:55;;;;;;;7.28;3.00;;;30.90;70.90;;;;;;4897788;29;20385;-79
2022/06/01 13:28:24;;;;;;;17.83;4.60;;;30.90;72.10;;;;;;4881254;29;20442;-79
2022/06/01 13:30:53;;;;;;;8.47;3.03;;;31.20;70.50;;;;;;4897624;29;20052;-80
2022/06/01 13:33:26;;;;;;;9.65;3.50;;;31.10;69.30;;;;;;4897413;29;20047;-80
2022/06/01 13:35:58;;;;;;;12.80;3.83;;;31.30;69.70;;;;;;4881057;29;20064;-85
2022/06/01 13:38:33;;;;;;;10.40;3.95;;;31.30;69.30;;;;;;4897294;29;20127;-83
2022/06/01 13:41:09;;;;;;;13.68;4.25;;;31.40;69.40;;;;;;4897614;29;20100;-81
2022/06/01 13:43:41;;;;;;;10.48;3.38;;;31.30;69.60;;;;;;4880844;29;20135;-84
2022/06/01 13:46:38;;;;;;;10.48;3.75;;;31.00;69.40;;;;;;4880526;29;20040;-81
2022/06/01 13:49:15;;;;;;;9.77;3.20;;;31.00;69.40;;;;;;4897124;29;20072;-80
2022/06/01 13:51:54;;;;;;;11.48;3.72;;;31.40;69.40;;;;;;4896871;29;20036;-80
2022/06/01 13:54:26;;;;;;;14.40;3.10;;;31.00;68.70;;;;;;4880942;29;20092;-78
2022/06/01 13:57:14;;;;;;;6.60;3.00;;;30.50;69.10;;;;;;4880474;29;20410;-78
2022/06/01 13:59:54;;;;;;;18.05;3.78;;;31.00;69.00;;;;;;4880929;29;20488;-80
2022/06/01 14:02:50;;;;;;;11.35;3.00;;;31.40;68.40;;;;;;4896957;29;20036;-79
2022/06/01 14:05:32;;;;;;;9.05;2.83;;;31.60;68.60;;;;;;4897426;29;20052;-78
2022/06/01 14:08:02;;;;;;;9.93;4.00;;;31.70;67.10;;;;;;4897112;29;20032;-78
2022/06/01 14:10:33;;;;;;;11.00;3.42;;;31.20;68.10;;;;;;4897312;29;20425;-78
2022/06/01 14:13:01;;;;;;;7.32;3.35;;;30.80;68.80;;;;;;4880106;29;20118;-81
2022/06/01 14:15:29;;;;;;;12.90;3.13;;;30.80;69.00;;;;;;4896961;29;20488;-80
2022/06/01 14:17:57;;;;;;;10.00;3.78;;;30.60;69.40;;;;;;4896635;29;20365;-81
2022/06/01 14:20:24;;;;;;;8.68;3.20;;;30.70;69.30;;;;;;4895627;29;20124;-78
2022/06/01 14:22:52;;;;;;;11.95;3.58;;;30.50;70.20;;;;;;4863644;29;20500;-83
2022/06/01 14:30:53;;;;;;;7.13;3.20;;;30.50;70.30;;;;;;4893094;29;20389;-82
2022/06/01 14:33:21;;;;;;;8.18;3.65;;;30.50;70.30;;;;;;4895538;29;20519;-78
2022/06/01 14:35:50;;;;;;;10.95;3.47;;;30.30;70.60;;;;;;4895763;29;20539;-78
2022/06/01 14:38:17;;;;;;;9.82;3.17;;;31.00;70.10;;;;;;4893700;29;20476;-79
2022/06/01 14:40:45;;;;;;;6.38;2.80;;;31.20;69.00;;;;;;4878832;29;20040;-79
2022/06/01 14:43:12;;;;;;;9.60;3.38;;;31.20;69.20;;;;;;4894950;29;20101;-79
2022/06/01 14:45:39;;;;;;;8.52;3.00;;;31.70;68.30;;;;;;4895559;29;20048;-78
2022/06/01 14:48:07;;;;;;;7.13;2.90;;;31.50;68.10;;;;;;4879703;29;20123;-81
2022/06/01 14:50:35;;;;;;;11.43;3.28;;;31.80;68.50;;;;;;4896954;29;20076;-79
2022/06/01 14:53:22;;;;;;;9.65;3.47;;;31.80;67.10;;;;;;4889202;29;20040;-77
2022/06/01 14:55:50;;;;;;;8.50;3.20;;;30.80;69.10;;;;;;4897129;29;20128;-78
2022/06/01 14:58:18;;;;;;;9.57;2.90;;;30.60;69.80;;;;;;4872322;29;20754;-78
2022/06/01 15:00:48;;;;;;;11.77;3.60;;;31.20;68.70;;;;;;4871605;29;20429;-77
2022/06/01 15:03:41;;;;;;;8.82;3.63;;;31.70;67.90;;;;;;4875755;29;20476;-76
2022/06/01 15:06:10;;;;;;;8.32;3.00;;;32.00;67.30;;;;;;4887854;29;20556;-79
2022/06/01 15:08:38;;;;;;;9.88;3.50;;;32.00;67.40;;;;;;4872993;29;20041;-80
2022/06/01 15:11:06;;;;;;;33.50;22.40;;;32.30;67.00;;;;;;4873137;29;20088;-82
2022/06/01 15:13:34;;;;;;;13.95;6.15;;;32.40;65.80;;;;;;4845445;29;20097;-79
2022/06/01 15:16:03;;;;;;;14.35;5.60;;;32.30;67.00;;;;;;4891289;29;20056;-79
2022/06/01 15:18:31;;;;;;;11.13;4.10;;;32.40;65.70;;;;;;4896001;29;20045;-79
2022/06/01 15:21:01;;;;;;;21.95;14.43;;;32.30;65.00;;;;;;4892440;29;20156;-78
2022/06/01 15:23:28;;;;;;;14.70;6.60;;;32.20;65.20;;;;;;4866400;29;20044;-79
2022/06/01 15:25:57;;;;;;;16.00;7.65;;;32.50;64.50;;;;;;4893528;29;20040;-76
2022/06/01 15:28:37;;;;;;;9.82;3.60;;;32.70;64.40;;;;;;4894395;29;20040;-78
2022/06/01 15:39:31;;;;;;;9.07;3.05;;;32.30;64.50;;;;;;4887689;29;20409;-80
2022/06/01 15:42:09;;;;;;;14.30;3.85;;;32.10;65.50;;;;;;4876792;29;20186;-77
2022/06/01 15:44:36;;;;;;;8.93;4.10;;;32.40;65.00;;;;;;4885842;29;20159;-79
2022/06/01 15:47:19;;;;;;;12.98;4.68;;;32.40;65.90;;;;;;4866311;29;20527;-78
2022/06/01 15:49:47;;;;;;;;;;;32.50;65.30;;;;;;4897651;29;20106;-79
2022/06/01 15:52:18;;;;;;;11.52;3.72;;;32.40;64.20;;;;;;4858799;29;19926;-78
2022/06/01 15:54:47;;;;;;;9.02;3.05;;;32.10;64.30;;;;;;4877656;29;20472;-78
2022/06/01 15:57:15;;;;;;;8.18;3.03;;;31.80;65.00;;;;;;4907854;29;20064;-81
2022/06/01 15:59:44;;;;;;;14.40;3.08;;;31.90;64.80;;;;;;4889873;29;20069;-80
2022/06/01 16:02:22;;;;;;;11.23;3.55;;;32.00;64.40;;;;;;4877409;29;20108;-77
2022/06/01 16:04:51;;;;;;;12.60;3.28;;;32.20;64.30;;;;;;4887460;29;20147;-80
2022/06/01 16:07:20;;;;;;;10.20;3.58;;;31.80;63.50;;;;;;4892125;29;20107;-84
2022/06/01 16:09:49;;;;;;;11.85;3.13;;;31.80;63.30;;;;;;4861384;29;20033;-86
2022/06/01 16:12:17;;;;;;;38.05;26.10;;;32.20;63.10;;;;;;4890346;29;20045;-85
2022/06/01 16:14:47;;;;;;;37.13;27.98;;;32.10;62.90;;;;;;4875670;29;20039;-81
2022/06/01 16:17:29;;;;;;;15.85;5.07;;;32.00;64.60;;;;;;4875979;29;20052;-78
2022/06/01 16:20:06;;;;;;;13.98;3.33;;;31.70;63.90;;;;;;4903322;29;20055;-79
2022/06/01 16:22:35;;;;;;;12.13;3.67;;;32.20;62.80;;;;;;4887470;29;20147;-80
2022/06/01 16:25:04;;;;;;;15.38;3.80;;;32.40;63.00;;;;;;4874794;29;20037;-85
2022/06/01 16:27:37;;;;;;;9.20;2.75;;;32.20;63.30;;;;;;4896529;29;20052;-87
2022/06/01 16:30:09;;;;;;;13.25;3.20;;;32.00;61.20;;;;;;4865470;29;20048;-81
2022/06/01 16:32:42;;;;;;;16.05;3.33;;;31.80;61.50;;;;;;4875281;29;20425;-80
2022/06/01 16:35:15;;;;;;;18.17;3.83;;;32.00;61.10;;;;;;4875614;29;20044;-88
2022/06/01 16:37:45;;;;;;;12.48;3.10;;;31.60;61.10;;;;;;4880326;29;20426;-79
2022/06/01 16:40:18;;;;;;;11.38;3.00;;;31.50;61.90;;;;;;4895078;29;20434;-79
2022/06/01 16:42:51;;;;;;;19.27;10.05;;;31.30;61.60;;;;;;4892817;29;20437;-76
2022/06/01 16:45:34;;;;;;;56.63;39.85;;;31.20;62.10;;;;;;4880481;29;20044;-80
2022/06/01 16:48:05;;;;;;;29.83;19.50;;;31.00;61.10;;;;;;4877450;29;20052;-77